sensor_id;sensor_type;location;lat;lon;timestamp;pressure;altitude;pressure_sealevel;temperature;humidity
21357;BME280;10836;53.068;18.234;2023-07-08T00:00:54;101705.25;;;12.59;100.00
21357;BME280;10836;53.068;18.234;2023-07-08T00:03:41;101700.28;;;12.56;100.00
21357;BME280;10836;53.068;18.234;2023-07-08T00:06:21;101703.00;;;12.51;100.00
21357;BME280;10836;53.068;18.234;2023-07-08T00:08:49;101699.75;;;12.59;100.00
21357;BME280;10836;53.068;18.234;2023-07-08T00:11:17;101697.53;;;12.51;100.00
21357;BME280;10836;53.068;18.234;2023-07-08T00:13:44;101699.97;;;12.48;100.00
21357;BME280;10836;53.068;18.234;2023-07-08T00:16:16;101694.16;;;12.39;100.00
21357;BME280;10836;53.068;18.234;2023-07-08T00:18:44;101699.72;;;12.49;100.00
21357;BME280;10836;53.068;18.234;2023-07-08T00:21:14;101700.75;;;12.43;100.00
21357;BME280;10836;53.068;18.234;2023-07-08T00:23:45;101697.66;;;12.35;100.00
21357;BME280;10836;53.068;18.234;2023-07-08T00:26:23;101700.56;;;12.23;100.00
21357;BME280;10836;53.068;18.234;2023-07-08T00:28:52;101706.03;;;12.23;100.00
21357;BME280;10836;53.068;18.234;2023-07-08T00:31:20;101696.19;;;12.22;100.00
21357;BME280;10836;53.068;18.234;2023-07-08T00:33:54;101693.97;;;12.19;100.00
21357;BME280;10836;53.068;18.234;2023-07-08T00:36:25;101689.53;;;12.13;100.00
21357;BME280;10836;53.068;18.234;2023-07-08T00:38:52;101688.47;;;12.19;100.00
21357;BME280;10836;53.068;18.234;2023-07-08T00:41:23;101685.38;;;12.05;100.00
21357;BME280;10836;53.068;18.234;2023-07-08T00:43:55;101686.34;;;11.94;100.00
21357;BME280;10836;53.068;18.234;2023-07-08T00:49:23;101680.66;;;12.01;100.00
21357;BME280;10836;53.068;18.234;2023-07-08T00:51:51;101670.69;;;11.89;100.00
21357;BME280;10836;53.068;18.234;2023-07-08T00:54:19;101681.06;;;11.87;100.00
21357;BME280;10836;53.068;18.234;2023-07-08T00:56:59;101674.16;;;11.80;100.00
21357;BME280;10836;53.068;18.234;2023-07-08T00:59:31;101671.47;;;11.85;100.00
21357;BME280;10836;53.068;18.234;2023-07-08T01:02:02;101669.50;;;11.80;100.00
21357;BME280;10836;53.068;18.234;2023-07-08T01:04:50;101660.06;;;11.71;100.00
21357;BME280;10836;53.068;18.234;2023-07-08T01:07:19;101659.88;;;11.51;100.00
21357;BME280;10836;53.068;18.234;2023-07-08T01:09:52;101655.59;;;11.38;100.00
21357;BME280;10836;53.068;18.234;2023-07-08T01:12:26;101659.22;;;11.44;100.00
21357;BME280;10836;53.068;18.234;2023-07-08T01:14:55;101655.59;;;11.38;100.00
21357;BME280;10836;53.068;18.234;2023-07-08T01:17:23;101653.25;;;11.47;100.00
21357;BME280;10836;53.068;18.234;2023-07-08T01:19:50;101655.41;;;11.45;100.00
21357;BME280;10836;53.068;18.234;2023-07-08T01:22:18;101652.50;;;11.29;100.00
21357;BME280;10836;53.068;18.234;2023-07-08T01:24:45;101656.84;;;11.25;100.00
21357;BME280;10836;53.068;18.234;2023-07-08T01:27:15;101654.56;;;11.17;100.00
21357;BME280;10836;53.068;18.234;2023-07-08T01:29:43;101657.84;;;11.19;100.00
21357;BME280;10836;53.068;18.234;2023-07-08T01:32:13;101648.44;;;11.10;100.00
21357;BME280;10836;53.068;18.234;2023-07-08T01:34:45;101649.97;;;11.01;100.00
21357;BME280;10836;53.068;18.234;2023-07-08T01:37:39;101649.06;;;10.95;100.00
21357;BME280;10836;53.068;18.234;2023-07-08T01:42:46;101648.38;;;11.05;100.00
21357;BME280;10836;53.068;18.234;2023-07-08T01:45:16;101648.94;;;11.07;100.00
21357;BME280;10836;53.068;18.234;2023-07-08T01:47:48;101649.63;;;10.97;100.00
21357;BME280;10836;53.068;18.234;2023-07-08T01:50:17;101654.78;;;10.94;100.00
21357;BME280;10836;53.068;18.234;2023-07-08T01:52:47;101657.50;;;10.94;100.00
21357;BME280;10836;53.068;18.234;2023-07-08T01:55:15;101652.94;;;10.78;100.00
21357;BME280;10836;53.068;18.234;2023-07-08T01:57:42;101649.56;;;10.71;100.00
21357;BME280;10836;53.068;18.234;2023-07-08T02:00:09;101646.25;;;10.69;100.00
21357;BME280;10836;53.068;18.234;2023-07-08T02:02:39;101645.06;;;10.81;100.00
21357;BME280;10836;53.068;18.234;2023-07-08T02:05:06;101647.34;;;10.89;100.00
21357;BME280;10836;53.068;18.234;2023-07-08T02:07:34;101645.25;;;10.75;100.00
21357;BME280;10836;53.068;18.234;2023-07-08T02:10:01;101654.03;;;10.60;100.00
21357;BME280;10836;53.068;18.234;2023-07-08T02:12:28;101662.97;;;10.55;100.00
21357;BME280;10836;53.068;18.234;2023-07-08T02:14:55;101667.94;;;10.58;100.00
21357;BME280;10836;53.068;18.234;2023-07-08T02:17:22;101668.94;;;10.69;100.00
21357;BME280;10836;53.068;18.234;2023-07-08T02:19:49;101672.56;;;10.58;100.00
21357;BME280;10836;53.068;18.234;2023-07-08T02:22:16;101676.72;;;10.60;100.00
21357;BME280;10836;53.068;18.234;2023-07-08T02:24:43;101676.72;;;10.60;100.00
21357;BME280;10836;53.068;18.234;2023-07-08T02:27:10;101669.09;;;10.62;100.00
21357;BME280;10836;53.068;18.234;2023-07-08T02:29:37;101671.75;;;10.57;100.00
21357;BME280;10836;53.068;18.234;2023-07-08T02:32:05;101669.50;;;10.54;100.00
21357;BME280;10836;53.068;18.234;2023-07-08T02:34:32;101671.09;;;10.50;100.00
21357;BME280;10836;53.068;18.234;2023-07-08T02:37:00;101667.19;;;10.46;100.00
21357;BME280;10836;53.068;18.234;2023-07-08T02:39:27;101670.78;;;10.30;100.00
21357;BME280;10836;53.068;18.234;2023-07-08T02:41:54;101669.63;;;10.26;100.00
21357;BME280;10836;53.068;18.234;2023-07-08T02:44:22;101669.63;;;10.26;100.00
21357;BME280;10836;53.068;18.234;2023-07-08T02:46:49;101675.81;;;10.21;100.00
21357;BME280;10836;53.068;18.234;2023-07-08T02:49:15;101676.06;;;10.20;100.00
21357;BME280;10836;53.068;18.234;2023-07-08T02:51:43;101675.22;;;10.19;100.00
21357;BME280;10836;53.068;18.234;2023-07-08T02:54:10;101673.91;;;10.22;100.00
21357;BME280;10836;53.068;18.234;2023-07-08T02:56:37;101666.63;;;10.27;100.00
21357;BME280;10836;53.068;18.234;2023-07-08T02:59:04;101664.34;;;10.36;100.00
21357;BME280;10836;53.068;18.234;2023-07-08T03:01:31;101665.41;;;10.35;100.00
21357;BME280;10836;53.068;18.234;2023-07-08T03:03:58;101667.63;;;10.38;100.00
21357;BME280;10836;53.068;18.234;2023-07-08T03:06:27;101666.28;;;10.41;100.00
21357;BME280;10836;53.068;18.234;2023-07-08T03:08:54;101670.91;;;10.40;100.00
21357;BME280;10836;53.068;18.234;2023-07-08T03:11:21;101662.31;;;10.48;100.00
21357;BME280;10836;53.068;18.234;2023-07-08T03:13:48;101673.72;;;10.45;100.00
21357;BME280;10836;53.068;18.234;2023-07-08T03:16:15;101669.25;;;10.56;100.00
21357;BME280;10836;53.068;18.234;2023-07-08T03:18:42;101669.09;;;10.62;100.00
21357;BME280;10836;53.068;18.234;2023-07-08T03:21:17;101659.00;;;10.63;100.00
21357;BME280;10836;53.068;18.234;2023-07-08T03:23:44;101662.22;;;10.60;100.00
21357;BME280;10836;53.068;18.234;2023-07-08T03:26:18;101661.31;;;10.54;100.00
21357;BME280;10836;53.068;18.234;2023-07-08T03:28:47;101655.53;;;10.68;100.00
21357;BME280;10836;53.068;18.234;2023-07-08T03:31:15;101659.59;;;10.87;100.00
21357;BME280;10836;53.068;18.234;2023-07-08T03:33:42;101655.78;;;10.88;100.00
21357;BME280;10836;53.068;18.234;2023-07-08T03:36:14;101659.75;;;10.97;100.00
21357;BME280;10836;53.068;18.234;2023-07-08T03:38:55;101652.56;;;11.13;100.00
21357;BME280;10836;53.068;18.234;2023-07-08T03:41:23;101656.03;;;11.25;100.00
21357;BME280;10836;53.068;18.234;2023-07-08T03:43:51;101659.28;;;11.27;100.00
21357;BME280;10836;53.068;18.234;2023-07-08T03:46:20;101652.50;;;11.29;100.00
21357;BME280;10836;53.068;18.234;2023-07-08T03:48:49;101657.44;;;11.32;100.00
21357;BME280;10836;53.068;18.234;2023-07-08T03:51:21;101662.34;;;11.30;100.00
21357;BME280;10836;53.068;18.234;2023-07-08T03:53:49;101660.75;;;11.34;100.00
21357;BME280;10836;53.068;18.234;2023-07-08T03:56:18;101659.28;;;11.49;100.00
21357;BME280;10836;53.068;18.234;2023-07-08T03:58:45;101659.97;;;11.61;100.00
21357;BME280;10836;53.068;18.234;2023-07-08T04:01:17;101664.53;;;11.77;100.00
21357;BME280;10836;53.068;18.234;2023-07-08T04:03:45;101672.28;;;11.85;100.00
21357;BME280;10836;53.068;18.234;2023-07-08T04:06:13;101662.91;;;12.03;100.00
21357;BME280;10836;53.068;18.234;2023-07-08T04:08:40;101659.44;;;12.18;100.00
21357;BME280;10836;53.068;18.234;2023-07-08T04:11:10;101662.84;;;12.30;100.00
21357;BME280;10836;53.068;18.234;2023-07-08T04:13:38;101659.09;;;12.41;100.00
21357;BME280;10836;53.068;18.234;2023-07-08T04:16:05;101665.22;;;12.58;100.00
21357;BME280;10836;53.068;18.234;2023-07-08T04:18:33;101668.09;;;12.74;100.00
21357;BME280;10836;53.068;18.234;2023-07-08T04:21:00;101662.22;;;12.97;100.00
21357;BME280;10836;53.068;18.234;2023-07-08T04:23:30;101660.06;;;13.09;100.00
21357;BME280;10836;53.068;18.234;2023-07-08T04:25:57;101661.25;;;13.23;100.00
21357;BME280;10836;53.068;18.234;2023-07-08T04:28:24;101660.22;;;13.40;100.00
21357;BME280;10836;53.068;18.234;2023-07-08T04:30:51;101655.03;;;13.48;100.00
21357;BME280;10836;53.068;18.234;2023-07-08T04:33:18;101654.53;;;13.67;100.00
21357;BME280;10836;53.068;18.234;2023-07-08T04:35:46;101661.41;;;13.74;100.00
21357;BME280;10836;53.068;18.234;2023-07-08T04:38:19;101650.19;;;13.81;100.00
21357;BME280;10836;53.068;18.234;2023-07-08T04:40:49;101656.47;;;13.91;100.00
21357;BME280;10836;53.068;18.234;2023-07-08T04:43:18;101653.75;;;14.07;100.00
21357;BME280;10836;53.068;18.234;2023-07-08T04:45:51;101647.72;;;14.20;100.00
21357;BME280;10836;53.068;18.234;2023-07-08T04:48:20;101642.78;;;14.42;100.00
21357;BME280;10836;53.068;18.234;2023-07-08T04:50:52;101650.47;;;14.50;100.00
21357;BME280;10836;53.068;18.234;2023-07-08T04:53:20;101641.94;;;14.67;100.00
21357;BME280;10836;53.068;18.234;2023-07-08T04:55:53;101646.31;;;14.73;100.00
21357;BME280;10836;53.068;18.234;2023-07-08T04:58:21;101643.25;;;14.85;100.00
21357;BME280;10836;53.068;18.234;2023-07-08T05:00:49;101637.19;;;14.88;100.00
21357;BME280;10836;53.068;18.234;2023-07-08T05:03:15;101638.81;;;15.04;100.00
21357;BME280;10836;53.068;18.234;2023-07-08T05:05:43;101642.25;;;15.30;100.00
21357;BME280;10836;53.068;18.234;2023-07-08T05:08:11;101634.25;;;15.39;100.00
21357;BME280;10836;53.068;18.234;2023-07-08T05:10:39;101651.47;;;15.64;100.00
21357;BME280;10836;53.068;18.234;2023-07-08T05:13:06;101648.38;;;15.76;100.00
21357;BME280;10836;53.068;18.234;2023-07-08T05:15:33;101647.19;;;15.87;100.00
21357;BME280;10836;53.068;18.234;2023-07-08T05:18:02;101646.59;;;15.95;100.00
21357;BME280;10836;53.068;18.234;2023-07-08T05:20:29;101633.09;;;16.28;100.00
21357;BME280;10836;53.068;18.234;2023-07-08T05:22:57;101633.84;;;16.39;100.00
21357;BME280;10836;53.068;18.234;2023-07-08T05:25:25;101637.38;;;16.44;100.00
21357;BME280;10836;53.068;18.234;2023-07-08T05:27:51;101640.00;;;16.54;100.00
21357;BME280;10836;53.068;18.234;2023-07-08T05:30:18;101635.78;;;16.91;100.00
21357;BME280;10836;53.068;18.234;2023-07-08T05:32:45;101634.56;;;17.02;99.32
21357;BME280;10836;53.068;18.234;2023-07-08T05:35:13;101630.50;;;17.18;99.11
21357;BME280;10836;53.068;18.234;2023-07-08T05:37:40;101623.75;;;17.48;98.78
21357;BME280;10836;53.068;18.234;2023-07-08T05:40:08;101630.44;;;17.66;95.50
21357;BME280;10836;53.068;18.234;2023-07-08T05:42:35;101630.34;;;17.90;95.93
21357;BME280;10836;53.068;18.234;2023-07-08T05:45:03;101633.75;;;18.33;92.63
21357;BME280;10836;53.068;18.234;2023-07-08T05:47:33;101632.81;;;18.56;89.86
21357;BME280;10836;53.068;18.234;2023-07-08T05:50:01;101627.91;;;19.08;87.08
21357;BME280;10836;53.068;18.234;2023-07-08T05:52:28;101613.75;;;19.23;85.77
21357;BME280;10836;53.068;18.234;2023-07-08T05:54:55;101619.56;;;19.63;85.16
21357;BME280;10836;53.068;18.234;2023-07-08T05:57:22;101615.94;;;20.21;82.95
21357;BME280;10836;53.068;18.234;2023-07-08T05:59:52;101605.03;;;20.86;79.02
21357;BME280;10836;53.068;18.234;2023-07-08T06:02:19;101609.75;;;21.34;74.91
21357;BME280;10836;53.068;18.234;2023-07-08T06:04:48;101604.69;;;22.31;70.22
21357;BME280;10836;53.068;18.234;2023-07-08T06:07:15;101607.78;;;23.85;62.40
21357;BME280;10836;53.068;18.234;2023-07-08T06:09:43;101613.53;;;26.21;51.77
21357;BME280;10836;53.068;18.234;2023-07-08T06:12:11;101611.06;;;28.19;43.76
21357;BME280;10836;53.068;18.234;2023-07-08T06:14:38;101615.13;;;29.95;38.99
21357;BME280;10836;53.068;18.234;2023-07-08T06:17:05;101617.38;;;31.52;35.24
21357;BME280;10836;53.068;18.234;2023-07-08T06:19:33;101612.13;;;32.66;32.58
21357;BME280;10836;53.068;18.234;2023-07-08T06:22:00;101604.44;;;30.89;32.78
21357;BME280;10836;53.068;18.234;2023-07-08T06:24:47;101618.53;;;32.27;31.35
21357;BME280;10836;53.068;18.234;2023-07-08T06:27:14;101617.00;;;32.76;29.06
21357;BME280;10836;53.068;18.234;2023-07-08T06:29:41;101615.94;;;29.96;33.77
21357;BME280;10836;53.068;18.234;2023-07-08T06:32:08;101619.13;;;31.74;30.94
21357;BME280;10836;53.068;18.234;2023-07-08T06:34:35;101618.63;;;29.85;31.07
21357;BME280;10836;53.068;18.234;2023-07-08T06:37:03;101610.53;;;30.51;32.48
21357;BME280;10836;53.068;18.234;2023-07-08T06:39:31;101614.06;;;31.36;32.10
21357;BME280;10836;53.068;18.234;2023-07-08T06:41:58;101613.72;;;30.93;32.00
21357;BME280;10836;53.068;18.234;2023-07-08T06:44:30;101605.94;;;30.35;34.39
21357;BME280;10836;53.068;18.234;2023-07-08T06:46:57;101604.72;;;28.87;35.09
21357;BME280;10836;53.068;18.234;2023-07-08T06:49:24;101600.25;;;28.63;35.77
21357;BME280;10836;53.068;18.234;2023-07-08T06:51:51;101603.69;;;27.91;37.24
21357;BME280;10836;53.068;18.234;2023-07-08T06:54:18;101600.72;;;27.30;38.72
21357;BME280;10836;53.068;18.234;2023-07-08T06:56:45;101596.91;;;27.38;37.47
21357;BME280;10836;53.068;18.234;2023-07-08T06:59:12;101599.63;;;26.99;39.56
21357;BME280;10836;53.068;18.234;2023-07-08T07:01:39;101600.41;;;26.52;38.29
21357;BME280;10836;53.068;18.234;2023-07-08T07:04:06;101605.31;;;26.71;39.32
21357;BME280;10836;53.068;18.234;2023-07-08T07:06:33;101604.94;;;26.41;37.55
21357;BME280;10836;53.068;18.234;2023-07-08T07:09:00;101600.81;;;25.67;37.09
21357;BME280;10836;53.068;18.234;2023-07-08T07:11:27;101603.31;;;26.40;37.84
21357;BME280;10836;53.068;18.234;2023-07-08T07:13:55;101600.41;;;27.15;37.31
21357;BME280;10836;53.068;18.234;2023-07-08T07:16:22;101599.97;;;26.98;36.08
21357;BME280;10836;53.068;18.234;2023-07-08T07:18:49;101595.81;;;27.07;37.18
21357;BME280;10836;53.068;18.234;2023-07-08T07:21:19;101601.31;;;26.88;37.70
21357;BME280;10836;53.068;18.234;2023-07-08T07:23:46;101597.00;;;27.41;36.90
21357;BME280;10836;53.068;18.234;2023-07-08T07:26:13;101600.38;;;28.05;34.36
21357;BME280;10836;53.068;18.234;2023-07-08T07:28:41;101598.31;;;27.63;32.49
21357;BME280;10836;53.068;18.234;2023-07-08T07:31:08;101594.84;;;27.89;33.26
21357;BME280;10836;53.068;18.234;2023-07-08T07:33:38;101594.84;;;27.89;33.61
21357;BME280;10836;53.068;18.234;2023-07-08T07:36:05;101603.44;;;28.19;31.25
21357;BME280;10836;53.068;18.234;2023-07-08T07:38:33;101602.66;;;27.61;32.79
21357;BME280;10836;53.068;18.234;2023-07-08T07:41:00;101589.00;;;27.78;33.11
21357;BME280;10836;53.068;18.234;2023-07-08T07:43:33;101612.03;;;28.26;31.49
21357;BME280;10836;53.068;18.234;2023-07-08T07:46:00;101605.38;;;28.34;31.99
21357;BME280;10836;53.068;18.234;2023-07-08T07:48:28;101604.28;;;28.00;32.06
21357;BME280;10836;53.068;18.234;2023-07-08T07:50:55;101607.09;;;28.00;34.24
21357;BME280;10836;53.068;18.234;2023-07-08T07:53:22;101609.81;;;28.35;33.22
21357;BME280;10836;53.068;18.234;2023-07-08T07:55:59;101600.84;;;28.95;33.53
21357;BME280;10836;53.068;18.234;2023-07-08T07:58:27;101610.13;;;28.76;30.48
21357;BME280;10836;53.068;18.234;2023-07-08T08:00:54;101612.22;;;29.02;30.33
21357;BME280;10836;53.068;18.234;2023-07-08T08:03:21;101600.03;;;28.94;30.54
21357;BME280;10836;53.068;18.234;2023-07-08T08:05:49;101608.91;;;28.96;29.93
21357;BME280;10836;53.068;18.234;2023-07-08T08:08:16;101603.53;;;29.40;30.15
21357;BME280;10836;53.068;18.234;2023-07-08T08:10:44;101606.34;;;28.23;30.85
21357;BME280;10836;53.068;18.234;2023-07-08T08:13:11;101600.25;;;28.21;31.30
21357;BME280;10836;53.068;18.234;2023-07-08T08:15:38;101608.28;;;29.10;30.36
21357;BME280;10836;53.068;18.234;2023-07-08T08:18:06;101605.66;;;29.47;29.77
21357;BME280;10836;53.068;18.234;2023-07-08T08:20:33;101614.16;;;29.81;29.99
21357;BME280;10836;53.068;18.234;2023-07-08T08:23:00;101608.91;;;30.13;28.26
21357;BME280;10836;53.068;18.234;2023-07-08T08:25:27;101616.19;;;29.84;28.71
21357;BME280;10836;53.068;18.234;2023-07-08T08:27:54;101615.78;;;30.15;29.46
21357;BME280;10836;53.068;18.234;2023-07-08T08:30:21;101614.69;;;30.23;28.21
21357;BME280;10836;53.068;18.234;2023-07-08T08:32:48;101615.44;;;30.20;29.44
21357;BME280;10836;53.068;18.234;2023-07-08T08:35:15;101619.06;;;30.58;27.05
21357;BME280;10836;53.068;18.234;2023-07-08T08:37:42;101611.88;;;30.64;28.05
21357;BME280;10836;53.068;18.234;2023-07-08T08:40:15;101608.66;;;30.25;29.24
21357;BME280;10836;53.068;18.234;2023-07-08T08:42:53;101611.13;;;30.33;27.96
21357;BME280;10836;53.068;18.234;2023-07-08T08:45:25;101616.25;;;31.05;28.04
21357;BME280;10836;53.068;18.234;2023-07-08T08:47:58;101619.63;;;31.25;26.74
21357;BME280;10836;53.068;18.234;2023-07-08T08:50:33;101617.59;;;30.71;27.89
21357;BME280;10836;53.068;18.234;2023-07-08T08:53:09;101613.81;;;31.04;27.65
21357;BME280;10836;53.068;18.234;2023-07-08T08:55:38;101613.19;;;31.25;28.05
21357;BME280;10836;53.068;18.234;2023-07-08T08:58:25;101615.75;;;30.93;25.69
21357;BME280;10836;53.068;18.234;2023-07-08T09:00:59;101600.84;;;30.11;26.75
21357;BME280;10836;53.068;18.234;2023-07-08T09:06:15;101612.66;;;30.61;26.97
21357;BME280;10836;53.068;18.234;2023-07-08T09:08:43;101610.56;;;30.98;27.23
21357;BME280;10836;53.068;18.234;2023-07-08T09:13:47;101606.78;;;30.80;26.69
21357;BME280;10836;53.068;18.234;2023-07-08T09:16:24;101607.03;;;31.74;27.17
21357;BME280;10836;53.068;18.234;2023-07-08T09:19:04;101608.31;;;31.22;26.26
21357;BME280;10836;53.068;18.234;2023-07-08T09:21:37;101599.16;;;32.51;26.32
21357;BME280;10836;53.068;18.234;2023-07-08T09:24:18;101597.06;;;33.58;22.53
21357;BME280;10836;53.068;18.234;2023-07-08T09:26:48;101598.25;;;33.67;25.31
21357;BME280;10836;53.068;18.234;2023-07-08T09:29:18;101588.19;;;33.49;24.29
21357;BME280;10836;53.068;18.234;2023-07-08T09:31:44;101593.53;;;33.00;24.67
21357;BME280;10836;53.068;18.234;2023-07-08T09:34:17;101582.22;;;32.58;25.06
21357;BME280;10836;53.068;18.234;2023-07-08T09:36:47;101588.81;;;31.02;24.43
21357;BME280;10836;53.068;18.234;2023-07-08T09:39:19;101579.38;;;31.32;23.47
21357;BME280;10836;53.068;18.234;2023-07-08T09:41:48;101583.34;;;30.28;25.83
21357;BME280;10836;53.068;18.234;2023-07-08T09:46:54;101567.66;;;29.97;26.96
21357;BME280;10836;53.068;18.234;2023-07-08T09:49:30;101571.31;;;30.31;26.57
21357;BME280;10836;53.068;18.234;2023-07-08T09:51:58;101575.16;;;31.08;26.10
21357;BME280;10836;53.068;18.234;2023-07-08T09:54:26;101568.94;;;31.43;26.84
21357;BME280;10836;53.068;18.234;2023-07-08T09:57:09;101572.03;;;31.17;24.93
21357;BME280;10836;53.068;18.234;2023-07-08T09:59:43;101566.56;;;30.90;26.56
21357;BME280;10836;53.068;18.234;2023-07-08T10:05:14;101568.16;;;30.43;26.78
21357;BME280;10836;53.068;18.234;2023-07-08T10:07:41;101576.66;;;30.91;27.08
21357;BME280;10836;53.068;18.234;2023-07-08T10:10:13;101563.75;;;31.52;26.24
21357;BME280;10836;53.068;18.234;2023-07-08T10:12:49;101560.34;;;32.19;24.93
21357;BME280;10836;53.068;18.234;2023-07-08T10:15:32;101555.97;;;32.32;24.34
21357;BME280;10836;53.068;18.234;2023-07-08T10:18:00;101563.63;;;32.50;25.01
21357;BME280;10836;53.068;18.234;2023-07-08T10:20:57;101555.56;;;32.73;25.39
21357;BME280;10836;53.068;18.234;2023-07-08T10:23:40;101567.97;;;32.08;25.92
21357;BME280;10836;53.068;18.234;2023-07-08T10:26:27;101558.47;;;31.47;25.16
21357;BME280;10836;53.068;18.234;2023-07-08T10:32:24;101556.38;;;32.42;22.95
21357;BME280;10836;53.068;18.234;2023-07-08T10:35:04;101553.16;;;32.47;24.65
21357;BME280;10836;53.068;18.234;2023-07-08T10:46:22;101549.13;;;32.83;24.49
21357;BME280;10836;53.068;18.234;2023-07-08T10:57:51;101543.44;;;32.55;22.84
21357;BME280;10836;53.068;18.234;2023-07-08T11:03:36;101532.13;;;32.33;22.66
21357;BME280;10836;53.068;18.234;2023-07-08T11:06:15;101532.16;;;32.48;21.19
21357;BME280;10836;53.068;18.234;2023-07-08T11:08:46;101533.66;;;31.95;21.94
21357;BME280;10836;53.068;18.234;2023-07-08T11:11:37;101530.50;;;32.93;23.47
21357;BME280;10836;53.068;18.234;2023-07-08T11:14:16;101521.16;;;33.06;23.40
21357;BME280;10836;53.068;18.234;2023-07-08T11:17:07;101530.09;;;32.66;21.89
21357;BME280;10836;53.068;18.234;2023-07-08T11:19:42;101525.66;;;32.65;22.05
21357;BME280;10836;53.068;18.234;2023-07-08T11:22:13;101521.59;;;32.20;22.27
21357;BME280;10836;53.068;18.234;2023-07-08T11:24:45;101514.75;;;32.63;22.08
21357;BME280;10836;53.068;18.234;2023-07-08T11:27:33;101508.66;;;33.04;21.03
21357;BME280;10836;53.068;18.234;2023-07-08T11:30:06;101510.28;;;32.94;21.15
21357;BME280;10836;53.068;18.234;2023-07-08T11:32:41;101510.31;;;32.59;22.11
21357;BME280;10836;53.068;18.234;2023-07-08T11:35:23;101507.88;;;32.64;22.36
21357;BME280;10836;53.068;18.234;2023-07-08T11:37:53;101505.44;;;31.99;23.96
21357;BME280;10836;53.068;18.234;2023-07-08T11:40:22;101500.63;;;32.63;21.37
21357;BME280;10836;53.068;18.234;2023-07-08T11:42:51;101505.44;;;32.17;21.24
21357;BME280;10836;53.068;18.234;2023-07-08T11:45:38;101508.66;;;32.01;22.00
21357;BME280;10836;53.068;18.234;2023-07-08T11:48:18;101505.91;;;32.36;23.46
21357;BME280;10836;53.068;18.234;2023-07-08T11:50:46;101515.13;;;32.16;21.76
21357;BME280;10836;53.068;18.234;2023-07-08T11:59:11;101500.13;;;33.15;20.70
21357;BME280;10836;53.068;18.234;2023-07-08T12:01:47;101502.19;;;33.00;19.82
21357;BME280;10836;53.068;18.234;2023-07-08T12:04:25;101505.41;;;33.05;19.75
21357;BME280;10836;53.068;18.234;2023-07-08T12:07:16;101495.72;;;31.89;20.32
21357;BME280;10836;53.068;18.234;2023-07-08T12:09:57;101486.88;;;32.05;21.54
21357;BME280;10836;53.068;18.234;2023-07-08T12:12:31;101495.00;;;32.28;22.00
21357;BME280;10836;53.068;18.234;2023-07-08T12:15:07;101497.78;;;32.03;22.28
21357;BME280;10836;53.068;18.234;2023-07-08T12:17:38;101495.00;;;32.46;20.59
21357;BME280;10836;53.068;18.234;2023-07-08T12:20:17;101496.59;;;32.75;19.39
21357;BME280;10836;53.068;18.234;2023-07-08T12:22:45;101490.16;;;32.39;20.11
21357;BME280;10836;53.068;18.234;2023-07-08T12:25:14;101495.38;;;32.62;19.45
21357;BME280;10836;53.068;18.234;2023-07-08T12:27:44;101494.19;;;32.49;19.78
21357;BME280;10836;53.068;18.234;2023-07-08T12:30:13;101495.72;;;32.07;20.48
21357;BME280;10836;53.068;18.234;2023-07-08T12:32:40;101497.41;;;32.22;22.06
21357;BME280;10836;53.068;18.234;2023-07-08T12:35:19;101486.06;;;32.61;22.45
21357;BME280;10836;53.068;18.234;2023-07-08T12:37:47;101488.44;;;32.98;21.90
21357;BME280;10836;53.068;18.234;2023-07-08T12:40:14;101484.06;;;32.55;21.95
21357;BME280;10836;53.068;18.234;2023-07-08T12:42:41;101490.81;;;33.18;22.25
21357;BME280;10836;53.068;18.234;2023-07-08T12:45:14;101477.03;;;31.46;24.21
21357;BME280;10836;53.068;18.234;2023-07-08T12:47:42;101482.44;;;32.64;22.81
21357;BME280;10836;53.068;18.234;2023-07-08T12:50:11;101486.09;;;32.22;23.30
21357;BME280;10836;53.068;18.234;2023-07-08T12:52:39;101479.66;;;32.25;22.55
21357;BME280;10836;53.068;18.234;2023-07-08T12:55:10;101476.41;;;32.30;21.63
21357;BME280;10836;53.068;18.234;2023-07-08T12:57:40;101472.34;;;32.53;21.27
21357;BME280;10836;53.068;18.234;2023-07-08T13:00:25;101467.94;;;32.34;23.07
21357;BME280;10836;53.068;18.234;2023-07-08T13:03:05;101479.66;;;32.39;21.92
21357;BME280;10836;53.068;18.234;2023-07-08T13:05:33;101460.09;;;31.49;22.48
21357;BME280;10836;53.068;18.234;2023-07-08T13:08:01;101467.50;;;32.64;23.69
21357;BME280;10836;53.068;18.234;2023-07-08T13:10:29;101460.19;;;32.91;22.98
21357;BME280;10836;53.068;18.234;2023-07-08T13:13:00;101462.13;;;30.69;23.43
21357;BME280;10836;53.068;18.234;2023-07-08T13:15:34;101460.69;;;31.03;23.47
21357;BME280;10836;53.068;18.234;2023-07-08T13:18:03;101455.25;;;31.46;22.72
21357;BME280;10836;53.068;18.234;2023-07-08T13:20:31;101458.19;;;30.91;23.72
21357;BME280;10836;53.068;18.234;2023-07-08T13:23:00;101452.03;;;31.51;23.47
21357;BME280;10836;53.068;18.234;2023-07-08T13:25:30;101453.72;;;31.73;22.83
21357;BME280;10836;53.068;18.234;2023-07-08T13:28:13;101451.28;;;31.68;22.40
21357;BME280;10836;53.068;18.234;2023-07-08T13:30:54;101449.25;;;31.65;24.97
21357;BME280;10836;53.068;18.234;2023-07-08T13:33:23;101461.47;;;30.97;24.50
21357;BME280;10836;53.068;18.234;2023-07-08T13:35:51;101445.56;;;31.43;23.98
21357;BME280;10836;53.068;18.234;2023-07-08T13:38:21;101448.81;;;31.49;24.53